Ritter, Oregon
Current Conditions -  °F | °C
As of 12:35 PM on Saturday 25 Oct 2014 (Local Time) from KGCD Reporting Station
Broken Clouds Broken Clouds  
Wind Chill: 63°   Ceiling: 9000
Heat Index: 63°   Visibility: 10mi
Dew Point: 37°   Wind: 23mph
Humidity: 39%   Direction: 210°SSW
Pressure: 29.71"   Gusts: 39mph
Location:  44.89°N, 119.14°W
Report Text: KGCD 251935Z AUTO 21020G34KT 10SM SCT065 SCT075 BKN090 17/03 A2971 RMK AO2 T01710029
Loading
Personal Weather Stations






























Interactive Weather Map
Tropical Storm Tracking
New forecast layout! Learn more

10-Day Weather Forecast

Advertisements
Track Severe Weather on mobile